sensor_id;sensor_type;location;lat;lon;timestamp;P1;durP1;ratioP1;P2;durP2;ratioP2
50086;SDS011;35967;50.718;7.050;2024-01-15T00:08:24;24.97;;;9.50;;
50086;SDS011;35967;50.718;7.050;2024-01-15T00:18:29;24.23;;;9.57;;
50086;SDS011;35967;50.718;7.050;2024-01-15T00:28:32;30.00;;;10.23;;
50086;SDS011;35967;50.718;7.050;2024-01-15T00:38:36;28.60;;;10.77;;
50086;SDS011;35967;50.718;7.050;2024-01-15T00:48:39;27.37;;;11.27;;
50086;SDS011;35967;50.718;7.050;2024-01-15T00:58:44;36.90;;;12.63;;
50086;SDS011;35967;50.718;7.050;2024-01-15T01:08:48;37.47;;;12.77;;
50086;SDS011;35967;50.718;7.050;2024-01-15T01:18:52;26.57;;;11.27;;
50086;SDS011;35967;50.718;7.050;2024-01-15T01:28:56;29.30;;;11.13;;
50086;SDS011;35967;50.718;7.050;2024-01-15T01:39:00;36.50;;;12.93;;
50086;SDS011;35967;50.718;7.050;2024-01-15T01:49:04;36.97;;;13.13;;
50086;SDS011;35967;50.718;7.050;2024-01-15T01:59:09;29.03;;;12.00;;
50086;SDS011;35967;50.718;7.050;2024-01-15T02:09:14;34.97;;;13.00;;
50086;SDS011;35967;50.718;7.050;2024-01-15T02:19:18;35.77;;;12.13;;
50086;SDS011;35967;50.718;7.050;2024-01-15T02:29:23;34.00;;;13.00;;
50086;SDS011;35967;50.718;7.050;2024-01-15T02:39:26;32.17;;;12.77;;
50086;SDS011;35967;50.718;7.050;2024-01-15T02:49:32;32.60;;;13.07;;
50086;SDS011;35967;50.718;7.050;2024-01-15T02:59:35;33.90;;;12.90;;
50086;SDS011;35967;50.718;7.050;2024-01-15T03:09:39;32.07;;;13.80;;
50086;SDS011;35967;50.718;7.050;2024-01-15T03:19:42;28.23;;;11.90;;
50086;SDS011;35967;50.718;7.050;2024-01-15T03:29:47;27.63;;;12.43;;
50086;SDS011;35967;50.718;7.050;2024-01-15T03:39:50;28.40;;;13.00;;
50086;SDS011;35967;50.718;7.050;2024-01-15T03:49:55;35.07;;;13.87;;
50086;SDS011;35967;50.718;7.050;2024-01-15T03:59:58;31.97;;;14.03;;
50086;SDS011;35967;50.718;7.050;2024-01-15T04:10:03;28.83;;;13.03;;
50086;SDS011;35967;50.718;7.050;2024-01-15T04:20:06;24.93;;;12.07;;
50086;SDS011;35967;50.718;7.050;2024-01-15T04:30:12;28.47;;;13.53;;
50086;SDS011;35967;50.718;7.050;2024-01-15T04:40:16;24.97;;;12.73;;
50086;SDS011;35967;50.718;7.050;2024-01-15T04:50:20;25.37;;;11.27;;
50086;SDS011;35967;50.718;7.050;2024-01-15T05:00:24;19.33;;;9.37;;
50086;SDS011;35967;50.718;7.050;2024-01-15T05:10:28;23.43;;;9.57;;
50086;SDS011;35967;50.718;7.050;2024-01-15T05:20:31;22.73;;;9.47;;
50086;SDS011;35967;50.718;7.050;2024-01-15T05:30:36;20.30;;;9.40;;
50086;SDS011;35967;50.718;7.050;2024-01-15T05:40:39;25.30;;;11.07;;
50086;SDS011;35967;50.718;7.050;2024-01-15T05:50:43;24.03;;;10.83;;
50086;SDS011;35967;50.718;7.050;2024-01-15T06:00:46;27.03;;;12.17;;
50086;SDS011;35967;50.718;7.050;2024-01-15T06:10:53;23.73;;;9.90;;
50086;SDS011;35967;50.718;7.050;2024-01-15T06:20:58;21.73;;;10.93;;
50086;SDS011;35967;50.718;7.050;2024-01-15T06:31:03;25.20;;;10.93;;
50086;SDS011;35967;50.718;7.050;2024-01-15T06:41:08;22.83;;;10.33;;
50086;SDS011;35967;50.718;7.050;2024-01-15T06:51:13;28.07;;;11.40;;
50086;SDS011;35967;50.718;7.050;2024-01-15T07:01:16;28.23;;;12.03;;
50086;SDS011;35967;50.718;7.050;2024-01-15T07:11:21;27.50;;;12.93;;
50086;SDS011;35967;50.718;7.050;2024-01-15T07:21:24;38.93;;;12.80;;
50086;SDS011;35967;50.718;7.050;2024-01-15T07:31:28;33.73;;;12.40;;
50086;SDS011;35967;50.718;7.050;2024-01-15T07:41:32;25.97;;;11.63;;
50086;SDS011;35967;50.718;7.050;2024-01-15T07:51:37;22.77;;;10.37;;
50086;SDS011;35967;50.718;7.050;2024-01-15T08:01:42;18.53;;;8.27;;
50086;SDS011;35967;50.718;7.050;2024-01-15T08:11:47;20.07;;;9.87;;
50086;SDS011;35967;50.718;7.050;2024-01-15T08:21:51;25.57;;;8.50;;
50086;SDS011;35967;50.718;7.050;2024-01-15T08:31:55;24.50;;;9.07;;
50086;SDS011;35967;50.718;7.050;2024-01-15T08:41:58;21.47;;;8.23;;
50086;SDS011;35967;50.718;7.050;2024-01-15T08:52:03;21.67;;;9.10;;
50086;SDS011;35967;50.718;7.050;2024-01-15T09:02:06;23.40;;;9.10;;
50086;SDS011;35967;50.718;7.050;2024-01-15T09:12:12;24.97;;;8.33;;
50086;SDS011;35967;50.718;7.050;2024-01-15T09:22:17;18.97;;;8.47;;
50086;SDS011;35967;50.718;7.050;2024-01-15T09:32:22;16.10;;;6.33;;
50086;SDS011;35967;50.718;7.050;2024-01-15T09:42:25;16.20;;;6.20;;
50086;SDS011;35967;50.718;7.050;2024-01-15T09:52:31;14.67;;;6.30;;
50086;SDS011;35967;50.718;7.050;2024-01-15T10:02:37;19.80;;;7.20;;
50086;SDS011;35967;50.718;7.050;2024-01-15T10:12:43;13.63;;;7.00;;
50086;SDS011;35967;50.718;7.050;2024-01-15T10:22:48;15.17;;;6.80;;
50086;SDS011;35967;50.718;7.050;2024-01-15T10:32:58;15.60;;;7.87;;
50086;SDS011;35967;50.718;7.050;2024-01-15T10:43:03;17.70;;;8.70;;
50086;SDS011;35967;50.718;7.050;2024-01-15T10:53:08;15.93;;;8.10;;
50086;SDS011;35967;50.718;7.050;2024-01-15T11:03:14;17.23;;;7.90;;
50086;SDS011;35967;50.718;7.050;2024-01-15T11:13:20;11.97;;;5.60;;
50086;SDS011;35967;50.718;7.050;2024-01-15T11:23:41;10.97;;;5.87;;
50086;SDS011;35967;50.718;7.050;2024-01-15T11:33:49;17.03;;;7.37;;
50086;SDS011;35967;50.718;7.050;2024-01-15T11:43:53;14.00;;;8.37;;
50086;SDS011;35967;50.718;7.050;2024-01-15T11:53:57;14.33;;;8.43;;
50086;SDS011;35967;50.718;7.050;2024-01-15T12:04:05;23.40;;;8.97;;
50086;SDS011;35967;50.718;7.050;2024-01-15T12:14:10;23.73;;;9.90;;
50086;SDS011;35967;50.718;7.050;2024-01-15T12:24:13;19.83;;;7.60;;
50086;SDS011;35967;50.718;7.050;2024-01-15T12:34:18;14.23;;;7.13;;
50086;SDS011;35967;50.718;7.050;2024-01-15T12:44:22;19.13;;;8.27;;
50086;SDS011;35967;50.718;7.050;2024-01-15T12:54:27;20.40;;;7.80;;
50086;SDS011;35967;50.718;7.050;2024-01-15T13:04:30;16.93;;;5.23;;
50086;SDS011;35967;50.718;7.050;2024-01-15T13:14:36;17.83;;;4.60;;
50086;SDS011;35967;50.718;7.050;2024-01-15T13:24:39;9.47;;;3.00;;
50086;SDS011;35967;50.718;7.050;2024-01-15T13:34:44;15.40;;;3.17;;
50086;SDS011;35967;50.718;7.050;2024-01-15T13:44:47;18.53;;;3.50;;
50086;SDS011;35967;50.718;7.050;2024-01-15T13:54:51;11.57;;;3.57;;
50086;SDS011;35967;50.718;7.050;2024-01-15T14:04:55;11.50;;;4.03;;
50086;SDS011;35967;50.718;7.050;2024-01-15T14:14:59;8.77;;;2.93;;
50086;SDS011;35967;50.718;7.050;2024-01-15T14:25:03;8.57;;;3.60;;
50086;SDS011;35967;50.718;7.050;2024-01-15T14:35:08;7.93;;;2.97;;
50086;SDS011;35967;50.718;7.050;2024-01-15T14:45:12;5.30;;;2.00;;
50086;SDS011;35967;50.718;7.050;2024-01-15T14:55:17;6.63;;;1.50;;
50086;SDS011;35967;50.718;7.050;2024-01-15T15:05:20;6.43;;;2.00;;
50086;SDS011;35967;50.718;7.050;2024-01-15T15:15:25;7.17;;;2.57;;
50086;SDS011;35967;50.718;7.050;2024-01-15T15:25:28;5.50;;;2.30;;
50086;SDS011;35967;50.718;7.050;2024-01-15T15:35:32;6.00;;;2.80;;
50086;SDS011;35967;50.718;7.050;2024-01-15T15:45:35;8.20;;;3.00;;
50086;SDS011;35967;50.718;7.050;2024-01-15T15:55:40;7.90;;;3.83;;
50086;SDS011;35967;50.718;7.050;2024-01-15T16:05:43;9.53;;;3.27;;
50086;SDS011;35967;50.718;7.050;2024-01-15T16:15:55;6.23;;;2.97;;
50086;SDS011;35967;50.718;7.050;2024-01-15T16:26:18;10.13;;;4.37;;
50086;SDS011;35967;50.718;7.050;2024-01-15T16:36:23;7.97;;;4.00;;
50086;SDS011;35967;50.718;7.050;2024-01-15T16:46:27;10.10;;;4.73;;
50086;SDS011;35967;50.718;7.050;2024-01-15T16:56:32;8.83;;;3.97;;
50086;SDS011;35967;50.718;7.050;2024-01-15T17:06:35;4.10;;;2.53;;
50086;SDS011;35967;50.718;7.050;2024-01-15T17:16:40;7.67;;;2.47;;
50086;SDS011;35967;50.718;7.050;2024-01-15T17:26:43;15.53;;;3.17;;
50086;SDS011;35967;50.718;7.050;2024-01-15T17:36:49;13.30;;;2.50;;
50086;SDS011;35967;50.718;7.050;2024-01-15T17:46:52;12.37;;;2.60;;
50086;SDS011;35967;50.718;7.050;2024-01-15T17:56:58;10.53;;;2.70;;
50086;SDS011;35967;50.718;7.050;2024-01-15T18:07:01;9.30;;;2.63;;
50086;SDS011;35967;50.718;7.050;2024-01-15T18:17:06;10.00;;;2.00;;
50086;SDS011;35967;50.718;7.050;2024-01-15T18:27:09;9.73;;;3.20;;
50086;SDS011;35967;50.718;7.050;2024-01-15T18:37:14;12.57;;;2.07;;
50086;SDS011;35967;50.718;7.050;2024-01-15T18:47:16;6.13;;;2.17;;
50086;SDS011;35967;50.718;7.050;2024-01-15T18:57:22;8.67;;;2.47;;
50086;SDS011;35967;50.718;7.050;2024-01-15T19:07:25;13.17;;;3.10;;
50086;SDS011;35967;50.718;7.050;2024-01-15T19:17:30;12.30;;;2.57;;
50086;SDS011;35967;50.718;7.050;2024-01-15T19:27:34;7.33;;;2.37;;
50086;SDS011;35967;50.718;7.050;2024-01-15T19:37:42;9.27;;;2.73;;
50086;SDS011;35967;50.718;7.050;2024-01-15T19:47:45;8.83;;;2.70;;
50086;SDS011;35967;50.718;7.050;2024-01-15T19:57:50;9.03;;;2.80;;
50086;SDS011;35967;50.718;7.050;2024-01-15T20:07:53;6.97;;;3.10;;
50086;SDS011;35967;50.718;7.050;2024-01-15T20:17:58;12.50;;;3.87;;
50086;SDS011;35967;50.718;7.050;2024-01-15T20:28:01;15.33;;;4.27;;
50086;SDS011;35967;50.718;7.050;2024-01-15T20:38:06;11.70;;;4.27;;
50086;SDS011;35967;50.718;7.050;2024-01-15T20:48:09;19.30;;;6.27;;
50086;SDS011;35967;50.718;7.050;2024-01-15T20:58:14;17.23;;;4.47;;
50086;SDS011;35967;50.718;7.050;2024-01-15T21:08:23;18.47;;;4.37;;
50086;SDS011;35967;50.718;7.050;2024-01-15T21:18:28;16.90;;;4.37;;
50086;SDS011;35967;50.718;7.050;2024-01-15T21:28:31;11.00;;;3.40;;
50086;SDS011;35967;50.718;7.050;2024-01-15T21:38:36;15.47;;;3.37;;
50086;SDS011;35967;50.718;7.050;2024-01-15T21:48:38;14.60;;;2.70;;
50086;SDS011;35967;50.718;7.050;2024-01-15T21:58:44;12.30;;;2.90;;
50086;SDS011;35967;50.718;7.050;2024-01-15T22:08:48;12.70;;;3.03;;
50086;SDS011;35967;50.718;7.050;2024-01-15T22:18:54;12.67;;;3.70;;
50086;SDS011;35967;50.718;7.050;2024-01-15T22:29:03;12.87;;;4.23;;
50086;SDS011;35967;50.718;7.050;2024-01-15T22:39:08;9.33;;;4.10;;
50086;SDS011;35967;50.718;7.050;2024-01-15T22:49:11;11.60;;;4.53;;
50086;SDS011;35967;50.718;7.050;2024-01-15T22:59:16;12.73;;;5.53;;
50086;SDS011;35967;50.718;7.050;2024-01-15T23:09:24;10.33;;;5.23;;
50086;SDS011;35967;50.718;7.050;2024-01-15T23:19:28;18.90;;;6.00;;
50086;SDS011;35967;50.718;7.050;2024-01-15T23:29:32;13.47;;;5.17;;
50086;SDS011;35967;50.718;7.050;2024-01-15T23:39:37;20.33;;;5.20;;
50086;SDS011;35967;50.718;7.050;2024-01-15T23:49:40;14.83;;;4.70;;
50086;SDS011;35967;50.718;7.050;2024-01-15T23:59:45;15.33;;;5.10;;
